Pagrindinis puslapis
METAR-TAF:

METAR-TAF

Oro uostai :

Ogasta, Meinas, Jungtinės Amerikos Valstijos

platuma: 44-19-14N, ilguma: 069-47-50W, Aukštis: 107 m

Dabartinis oras

Ataskaita buvo paskelbta 1 valandą ir 8 minutes, ne 04:53 UTC
Vėjas 6 kt iš Pietvakarių
Temperatūra -2°C
Drėgmė 63%
Slėgis 997 hPa
Matomumas: 16.1 km
Mažai debesys ne aukštis 3400 ft
Su prošvaistėmis ne aukštis 5500 ft

METAR: KAUG 280453Z AUTO 23006KT 10SM FEW034 BKN055 M02/M08 A2945 RMK AO2 SLP977 T10221078 400441022

Laikas: 01:01 (06:01 UTC)

Prognozė

Ataskaita buvo paskelbta 29 minutes, ne 05:32 UTC
Prognozė galioja nuo 28 metu 06 UTC su 29 metu 06 UTC
Vėjas 9 kt iš Vakarų/Pietvakarių su gūsio iki 17 kt
Matomumas: 10 km
Mažai debesys ne aukštis 3500 ft
Su prošvaistėmis ne aukštis 6000 ft
Nuo 28 metu 1400 UTC
Vėjas 12 kt iš Vakarų/Pietvakarių su gūsio iki 22 kt
Matomumas: 10 km
Su prošvaistėmis ne aukštis 5000 ft

TAF: KAUG 280532Z 2806/2906 24009G17KT P6SM FEW035 BKN060 FM281400 25012G22KT P6SM BKN050

Orai ataskaitas ir orų prognozės (METAR, TAF).

turimą stotys yra geltonos ir raudonos taškus žemėlapyje.

Perkelti pele per norėdami pamatyti stoties vardą.

Tada spustelėkite, norėdami matyti oro stebėjimo ir prognozės.

Norėdami pakeisti žemėlapį: spustelėkite ant žalios mygtukų su juodo kryžiaus žemyn,; žalią mygtuką su brūkšneliu, jei norite nutolinti; arba žalių rodyklių gretimoms žemėlapius.


METAR-TAF: